createdAt,value
2023-04-19T00:00:07.401Z,7.75
2023-04-19T00:02:33.860Z,8.00
2023-04-19T00:05:01.446Z,7.50
2023-04-19T00:07:27.855Z,5.00
2023-04-19T00:09:54.227Z,7.67
2023-04-19T00:12:23.338Z,6.00
2023-04-19T00:14:49.714Z,7.67
2023-04-19T00:17:16.071Z,7.67
2023-04-19T00:19:42.479Z,5.50
2023-04-19T00:22:08.887Z,6.00
2023-04-19T00:24:36.097Z,7.25
2023-04-19T00:27:02.513Z,5.67
2023-04-19T00:29:28.876Z,5.50
2023-04-19T00:31:55.258Z,6.00
2023-04-19T00:34:21.590Z,6.00
2023-04-19T00:36:47.942Z,7.67
2023-04-19T00:39:15.176Z,5.25
2023-04-19T00:41:41.502Z,5.67
2023-04-19T00:44:07.847Z,6.00
2023-04-19T00:46:34.302Z,5.67
2023-04-19T00:49:00.709Z,5.00
2023-04-19T00:51:27.033Z,6.00
2023-04-19T00:53:53.371Z,5.33
2023-04-19T00:56:20.589Z,7.00
2023-04-19T00:58:46.929Z,5.67
2023-04-19T01:01:13.368Z,6.00
2023-04-19T01:03:40.060Z,4.00
2023-04-19T01:06:06.647Z,4.33
2023-04-19T01:08:32.994Z,5.33
2023-04-19T01:10:59.376Z,6.00
2023-04-19T01:13:25.746Z,5.33
2023-04-19T01:15:52.215Z,5.67
2023-04-19T01:18:18.679Z,6.00
2023-04-19T01:20:44.966Z,5.00
2023-04-19T01:23:11.347Z,4.33
2023-04-19T01:25:37.741Z,5.33
2023-04-19T01:28:04.078Z,4.33
2023-04-19T01:30:30.393Z,5.33
2023-04-19T01:32:56.792Z,5.00
2023-04-19T01:35:23.147Z,5.33
2023-04-19T01:37:49.551Z,5.33
2023-04-19T01:40:15.896Z,5.00
2023-04-19T01:42:42.222Z,5.33
2023-04-19T01:45:08.590Z,5.00
2023-04-19T01:47:35.042Z,5.33
2023-04-19T01:50:01.507Z,5.33
2023-04-19T01:52:27.864Z,5.33
2023-04-19T01:54:54.240Z,6.67
2023-04-19T01:57:20.567Z,6.00
2023-04-19T01:59:46.963Z,6.00
2023-04-19T02:02:13.396Z,6.00
2023-04-19T02:04:39.756Z,5.00
2023-04-19T02:07:06.163Z,6.33
2023-04-19T02:09:32.489Z,6.00
2023-04-19T02:11:58.825Z,5.00
2023-04-19T02:14:25.164Z,5.67
2023-04-19T02:16:51.644Z,5.33
2023-04-19T02:19:18.055Z,4.00
2023-04-19T02:21:44.382Z,5.00
2023-04-19T02:24:10.789Z,6.00
2023-04-19T02:26:37.136Z,7.00
2023-04-19T02:29:05.581Z,5.00
2023-04-19T02:31:33.095Z,4.67
2023-04-19T02:33:59.425Z,5.33
2023-04-19T02:36:25.778Z,6.67
2023-04-19T02:38:52.109Z,5.33
2023-04-19T02:41:18.453Z,5.00
2023-04-19T02:43:44.816Z,7.00
2023-04-19T02:46:12.124Z,6.50
2023-04-19T02:48:39.403Z,7.25
2023-04-19T02:51:05.768Z,6.00
2023-04-19T02:53:32.121Z,6.00
2023-04-19T02:55:58.497Z,6.33
2023-04-19T02:58:25.748Z,6.25
2023-04-19T03:00:52.180Z,6.00
2023-04-19T03:03:18.806Z,6.00
2023-04-19T03:05:45.216Z,7.00
2023-04-19T03:08:12.447Z,5.75
2023-04-19T03:10:38.773Z,5.00
2023-04-19T03:13:06.010Z,9.00
2023-04-19T03:15:33.340Z,8.00
2023-04-19T03:17:59.757Z,5.33
2023-04-19T03:20:26.151Z,6.00
2023-04-19T03:22:52.507Z,6.33
2023-04-19T03:25:18.925Z,8.33
2023-04-19T03:27:45.285Z,7.00
2023-04-19T03:30:11.715Z,7.00
2023-04-19T03:32:38.158Z,8.00
2023-04-19T03:35:04.604Z,8.00
2023-04-19T03:37:30.930Z,7.00
2023-04-19T03:39:58.144Z,7.00
2023-04-19T03:42:25.602Z,7.00
2023-04-19T03:44:55.578Z,6.83
2023-04-19T03:47:24.704Z,6.50
2023-04-19T03:49:51.062Z,5.33
2023-04-19T03:52:18.281Z,6.75
2023-04-19T03:54:44.661Z,7.00
2023-04-19T03:57:11.896Z,6.75
2023-04-19T03:59:38.333Z,7.00
2023-04-19T04:02:04.783Z,7.00
2023-04-19T04:04:31.319Z,7.33
2023-04-19T04:06:58.664Z,6.75
2023-04-19T04:09:25.008Z,5.33
2023-04-19T04:11:52.673Z,8.50
2023-04-19T04:14:19.071Z,7.33
2023-04-19T04:16:45.447Z,7.33
2023-04-19T04:19:12.778Z,7.50
2023-04-19T04:21:39.138Z,5.33
2023-04-19T04:24:06.403Z,7.00
2023-04-19T04:26:32.764Z,7.00
2023-04-19T04:28:59.186Z,6.00
2023-04-19T04:31:25.633Z,8.50
2023-04-19T04:33:52.893Z,6.75
2023-04-19T04:36:19.265Z,7.00
2023-04-19T04:38:45.658Z,9.00
2023-04-19T04:41:12.899Z,7.50
2023-04-19T04:43:40.156Z,8.75
2023-04-19T04:46:06.703Z,7.33
2023-04-19T04:48:33.173Z,5.33
2023-04-19T04:50:59.563Z,7.33
2023-04-19T04:53:25.932Z,5.67
2023-04-19T04:55:52.298Z,6.67
2023-04-19T04:58:20.525Z,5.25
2023-04-19T05:00:47.037Z,6.00
2023-04-19T05:03:13.595Z,8.50
2023-04-19T05:05:40.049Z,8.33
2023-04-19T05:08:06.417Z,7.00
2023-04-19T05:10:32.788Z,5.00
2023-04-19T05:12:59.173Z,7.00
2023-04-19T05:15:25.604Z,8.00
2023-04-19T05:17:52.004Z,6.00
2023-04-19T05:20:18.351Z,6.00
2023-04-19T05:22:44.805Z,7.00
2023-04-19T05:25:11.198Z,7.33
2023-04-19T05:27:37.549Z,6.00
2023-04-19T05:30:03.976Z,7.50
2023-04-19T05:32:31.246Z,6.75
2023-04-19T05:34:57.622Z,5.00
2023-04-19T05:37:23.976Z,6.00
2023-04-19T05:39:50.345Z,5.67
2023-04-19T05:42:16.678Z,5.33
2023-04-19T05:44:43.083Z,5.67
2023-04-19T05:47:10.312Z,5.50
2023-04-19T05:49:36.657Z,6.00
2023-04-19T05:52:03.014Z,5.00
2023-04-19T05:54:29.354Z,6.33
2023-04-19T05:56:55.736Z,4.67
2023-04-19T05:59:22.086Z,4.33
2023-04-19T06:01:48.512Z,5.00
2023-04-19T06:04:16.172Z,6.00
2023-04-19T06:06:43.689Z,6.00
2023-04-19T06:09:10.052Z,4.67
2023-04-19T06:11:46.952Z,5.00
2023-04-19T06:14:16.971Z,4.67
2023-04-19T06:16:44.461Z,5.00
2023-04-19T06:19:11.686Z,5.00
2023-04-19T06:21:38.901Z,5.00
2023-04-19T06:24:05.324Z,5.00
2023-04-19T06:26:31.669Z,4.00
2023-04-19T06:28:57.992Z,5.00
2023-04-19T06:31:24.363Z,5.00
2023-04-19T06:33:50.748Z,5.00
2023-04-19T06:36:17.959Z,5.00
2023-04-19T06:38:44.331Z,6.00
2023-04-19T06:41:11.652Z,5.00
2023-04-19T06:43:38.008Z,6.00
2023-04-19T06:46:04.409Z,5.33
2023-04-19T06:48:31.690Z,6.00
2023-04-19T06:51:00.780Z,6.83
2023-04-19T06:53:27.200Z,6.00
2023-04-19T06:55:53.534Z,5.33
2023-04-19T06:58:20.944Z,5.50
2023-04-19T07:00:48.144Z,7.00
2023-04-19T07:03:15.481Z,7.00
2023-04-19T07:05:41.975Z,6.67
2023-04-19T07:08:09.173Z,6.00
2023-04-19T07:10:36.500Z,7.50
2023-04-19T07:13:03.151Z,6.00
2023-04-19T07:15:29.589Z,6.00
2023-04-19T07:17:56.043Z,6.00
2023-04-19T07:20:23.267Z,6.75
2023-04-19T07:22:50.551Z,7.00
2023-04-19T07:25:16.961Z,7.00
2023-04-19T07:27:43.328Z,5.00
2023-04-19T07:30:10.591Z,8.00
2023-04-19T07:32:37.171Z,7.00
2023-04-19T07:35:03.763Z,7.00
2023-04-19T07:37:31.025Z,7.00
2023-04-19T07:39:58.371Z,8.00
2023-04-19T07:42:24.745Z,6.67
2023-04-19T07:44:51.141Z,7.00
2023-04-19T07:47:18.400Z,6.00
2023-04-19T07:49:44.807Z,8.00
2023-04-19T07:52:11.263Z,8.00
2023-04-19T07:54:37.760Z,6.50
2023-04-19T07:57:06.961Z,7.83
2023-04-19T07:59:33.423Z,7.00
2023-04-19T08:02:00.827Z,7.25
2023-04-19T08:04:27.768Z,8.00
2023-04-19T08:06:55.431Z,7.75
2023-04-19T08:09:23.729Z,10.60
2023-04-19T08:11:50.185Z,8.00
2023-04-19T08:14:32.293Z,7.50
2023-04-19T08:17:22.050Z,7.17
2023-04-19T08:19:50.937Z,7.00
2023-04-19T08:22:19.261Z,8.00
2023-04-19T08:24:48.419Z,7.00
2023-04-19T08:27:17.651Z,8.00
2023-04-19T08:29:44.860Z,7.00
2023-04-19T08:32:11.333Z,7.50
2023-04-19T08:34:40.649Z,7.67
2023-04-19T08:37:07.952Z,8.50
2023-04-19T08:39:35.312Z,8.00
2023-04-19T08:42:06.826Z,8.00
2023-04-19T08:44:46.724Z,7.20
2023-04-19T08:47:32.156Z,7.00
2023-04-19T08:50:14.024Z,8.20
2023-04-19T08:52:54.877Z,7.00
2023-04-19T08:55:23.860Z,8.00
2023-04-19T08:57:50.431Z,10.00
2023-04-19T09:00:16.904Z,8.00
2023-04-19T09:02:46.108Z,9.17
2023-04-19T09:05:15.269Z,10.00
2023-04-19T09:07:41.833Z,9.00
2023-04-19T09:10:08.735Z,9.00
2023-04-19T09:12:35.674Z,7.00
2023-04-19T09:15:02.753Z,8.00
2023-04-19T09:17:30.262Z,9.67
2023-04-19T09:19:56.744Z,9.00
2023-04-19T09:22:25.059Z,10.60
2023-04-19T09:27:20.858Z,8.00
2023-04-19T09:29:47.383Z,9.00
2023-04-19T09:32:13.868Z,9.00
2023-04-19T09:34:40.288Z,10.00
2023-04-19T09:37:13.402Z,10.00
2023-04-19T09:39:48.328Z,10.00
2023-04-19T09:42:20.723Z,8.80
2023-04-19T09:47:27.770Z,10.50
2023-04-19T09:49:55.328Z,11.33
2023-04-19T09:52:23.923Z,10.20
2023-04-19T09:54:50.368Z,9.50
2023-04-19T09:57:17.594Z,9.67
2023-04-19T09:59:44.869Z,10.00
2023-04-19T10:02:13.293Z,9.20
2023-04-19T10:04:59.728Z,9.67
2023-04-19T10:07:31.207Z,9.50
2023-04-19T10:10:11.841Z,9.20
2023-04-19T10:15:21.376Z,11.17
2023-04-19T10:17:47.908Z,8.00
2023-04-19T10:20:17.188Z,8.67
2023-04-19T10:22:43.676Z,9.00
2023-04-19T10:25:11.983Z,8.00
2023-04-19T10:27:38.420Z,7.00
2023-04-19T10:30:07.654Z,8.60
2023-04-19T10:32:34.399Z,8.00
2023-04-19T10:35:00.850Z,8.00
2023-04-19T10:37:29.119Z,8.80
2023-04-19T10:39:57.429Z,9.00
2023-04-19T10:42:23.820Z,9.00
2023-04-19T10:44:50.319Z,8.00
2023-04-19T10:47:16.809Z,8.00
2023-04-19T10:49:43.273Z,8.00
2023-04-19T10:52:10.512Z,6.75
2023-04-19T10:54:36.919Z,7.50
2023-04-19T10:57:03.361Z,7.00
2023-04-19T10:59:29.856Z,8.00
2023-04-19T11:01:56.371Z,10.00
2023-04-19T11:04:23.017Z,7.00
2023-04-19T11:06:52.506Z,8.50
2023-04-19T11:09:18.940Z,8.00
2023-04-19T11:11:45.408Z,8.00
2023-04-19T11:14:11.827Z,9.00
2023-04-19T11:16:45.857Z,8.00
2023-04-19T11:19:12.932Z,8.00
2023-04-19T11:21:39.520Z,8.00
2023-04-19T11:24:06.757Z,7.00
2023-04-19T11:26:35.906Z,7.50
2023-04-19T11:29:02.351Z,8.00
2023-04-19T11:31:28.804Z,8.00
2023-04-19T11:33:57.100Z,8.20
2023-04-19T11:36:24.300Z,6.50
2023-04-19T11:38:50.738Z,8.00
2023-04-19T11:41:17.185Z,8.00
2023-04-19T11:43:45.531Z,8.20
2023-04-19T11:46:12.860Z,9.67
2023-04-19T11:48:39.345Z,9.00
2023-04-19T11:51:07.678Z,8.40
2023-04-19T11:53:36.975Z,9.50
2023-04-19T11:56:03.399Z,7.00
2023-04-19T11:58:29.904Z,10.50
2023-04-19T12:00:56.478Z,8.00
2023-04-19T12:03:26.395Z,9.60
2023-04-19T12:05:55.220Z,9.20
2023-04-19T12:08:21.783Z,11.00
2023-04-19T12:10:51.720Z,10.14
2023-04-19T12:13:18.229Z,10.00
2023-04-19T12:15:44.739Z,9.00
2023-04-19T12:18:12.113Z,9.67
2023-04-19T12:20:38.561Z,8.00
2023-04-19T12:23:04.991Z,8.00
2023-04-19T12:25:31.467Z,7.00
2023-04-19T12:27:58.192Z,7.00
2023-04-19T12:30:27.379Z,8.33
2023-04-19T12:32:53.801Z,8.00
2023-04-19T12:35:21.118Z,9.00
2023-04-19T12:37:49.436Z,9.60
2023-04-19T12:40:15.934Z,7.00
2023-04-19T12:42:42.318Z,7.00
2023-04-19T12:45:09.566Z,9.33
2023-04-19T12:47:37.890Z,8.00
2023-04-19T12:50:04.292Z,5.00
2023-04-19T12:52:32.572Z,8.40
2023-04-19T12:55:01.763Z,8.00
2023-04-19T12:57:28.169Z,9.00
2023-04-19T12:59:54.572Z,7.50
2023-04-19T13:02:23.074Z,7.80
2023-04-19T13:04:49.758Z,9.00
2023-04-19T13:07:17.224Z,9.00
2023-04-19T13:09:46.360Z,6.50
2023-04-19T13:12:12.804Z,10.00
2023-04-19T13:14:39.209Z,7.33
2023-04-19T13:17:06.448Z,7.50
2023-04-19T13:19:32.929Z,8.00
2023-04-19T13:21:59.316Z,6.67
2023-04-19T13:24:26.553Z,7.00
2023-04-19T13:26:53.060Z,8.00
2023-04-19T13:29:19.821Z,9.00
2023-04-19T13:31:46.288Z,8.00
2023-04-19T13:34:12.717Z,8.00
2023-04-19T13:36:39.285Z,8.00
2023-04-19T13:39:07.718Z,8.00
2023-04-19T13:41:37.907Z,7.33
2023-04-19T13:44:04.707Z,7.00
2023-04-19T13:46:32.422Z,9.25
2023-04-19T13:48:58.880Z,7.50
2023-04-19T13:51:25.582Z,8.50
2023-04-19T13:53:54.747Z,8.00
2023-04-19T13:56:21.194Z,8.00
2023-04-19T13:58:47.824Z,8.00
2023-04-19T14:01:17.012Z,7.83
2023-04-19T14:03:43.568Z,7.00
2023-04-19T14:06:10.105Z,7.50
2023-04-19T14:08:37.328Z,7.00
2023-04-19T14:11:03.828Z,8.00
2023-04-19T14:13:31.047Z,8.50
2023-04-19T14:15:57.476Z,7.00
2023-04-19T14:18:24.748Z,7.50
2023-04-19T14:20:51.157Z,8.00
2023-04-19T14:23:19.466Z,9.00
2023-04-19T14:25:48.654Z,8.17
2023-04-19T14:28:15.136Z,8.00
2023-04-19T14:30:41.575Z,8.00
2023-04-19T14:33:08.061Z,7.50
2023-04-19T14:35:34.510Z,9.00
2023-04-19T14:38:00.910Z,7.00
2023-04-19T14:40:27.542Z,7.00
2023-04-19T14:42:54.004Z,8.00
2023-04-19T14:45:20.391Z,8.50
2023-04-19T14:47:48.770Z,10.00
2023-04-19T14:50:15.332Z,8.00
2023-04-19T14:52:44.541Z,7.83
2023-04-19T14:55:10.876Z,7.00
2023-04-19T14:57:37.303Z,7.00
2023-04-19T15:00:06.527Z,0.00
2023-04-19T15:02:33.059Z,9.50
2023-04-19T15:04:59.923Z,10.00
2023-04-19T15:07:26.583Z,8.00
2023-04-19T15:09:53.350Z,7.00
2023-04-19T15:12:21.666Z,9.40
2023-04-19T15:14:48.101Z,7.00
2023-04-19T15:17:15.379Z,8.67
2023-04-19T15:19:41.938Z,8.50
2023-04-19T15:22:08.379Z,10.00
2023-04-19T15:24:34.853Z,8.67
2023-04-19T15:27:01.248Z,6.00
2023-04-19T15:29:27.759Z,7.50
2023-04-19T15:31:57.231Z,9.17
2023-04-19T15:34:25.592Z,8.00
2023-04-19T15:36:54.794Z,9.50
2023-04-19T15:39:22.053Z,8.50
2023-04-19T15:41:49.309Z,8.50
2023-04-19T15:44:17.588Z,7.40
2023-04-19T15:46:44.065Z,7.00
2023-04-19T15:49:10.502Z,9.00
2023-04-19T15:51:37.722Z,6.25
2023-04-19T15:54:04.105Z,6.00
2023-04-19T15:56:30.529Z,8.50
2023-04-19T15:58:56.901Z,7.33
2023-04-19T16:01:24.173Z,7.50
2023-04-19T16:03:50.759Z,10.00
2023-04-19T16:06:17.264Z,7.00
2023-04-19T16:08:43.688Z,6.00
2023-04-19T16:11:10.127Z,8.00
2023-04-19T16:13:38.488Z,8.00
2023-04-19T16:16:04.940Z,6.00
2023-04-19T16:18:31.399Z,10.00
2023-04-19T16:20:57.848Z,8.00
2023-04-19T16:23:24.245Z,9.50
2023-04-19T16:25:50.805Z,7.50
2023-04-19T16:28:18.056Z,6.50
2023-04-19T16:30:47.175Z,6.33
2023-04-19T16:33:13.619Z,7.00
2023-04-19T16:35:40.901Z,7.50
2023-04-19T16:38:09.213Z,8.00
2023-04-19T16:40:35.631Z,7.67
2023-04-19T16:43:02.105Z,7.50
2023-04-19T16:45:28.507Z,7.67
2023-04-19T16:47:55.889Z,7.75
2023-04-19T16:50:22.376Z,7.00
2023-04-19T16:52:48.747Z,7.00
2023-04-19T16:55:17.932Z,8.00
2023-04-19T16:57:46.523Z,8.40
2023-04-19T17:00:12.939Z,9.00
2023-04-19T17:02:42.197Z,7.67
2023-04-19T17:05:08.978Z,10.00
2023-04-19T17:07:36.351Z,8.50
2023-04-19T17:10:02.718Z,5.00
2023-04-19T17:12:29.155Z,9.00
2023-04-19T17:14:58.386Z,8.50
2023-04-19T17:17:27.583Z,8.83
2023-04-19T17:19:56.559Z,10.00
2023-04-19T17:22:23.366Z,9.00
2023-04-19T17:24:52.561Z,9.67
2023-04-19T17:27:20.882Z,9.80
2023-04-19T17:29:47.384Z,11.00
2023-04-19T17:32:13.875Z,11.00
2023-04-19T17:34:40.368Z,9.50
2023-04-19T17:37:08.687Z,10.00
2023-04-19T17:39:35.949Z,10.00
2023-04-19T17:42:04.320Z,10.00
2023-04-19T17:44:31.592Z,10.33
2023-04-19T17:46:58.568Z,11.00
2023-04-19T17:49:25.873Z,10.67
2023-04-19T17:51:55.070Z,11.67
2023-04-19T17:54:22.371Z,12.00
2023-04-19T17:56:49.724Z,12.00
2023-04-19T17:59:17.207Z,12.33
2023-04-19T18:01:44.716Z,11.00
2023-04-19T18:04:12.292Z,11.67
2023-04-19T18:06:38.888Z,12.00
2023-04-19T18:09:05.299Z,12.00
2023-04-19T18:11:31.774Z,10.00
2023-04-19T18:13:58.208Z,13.00
2023-04-19T18:16:24.775Z,10.50
2023-04-19T18:18:52.077Z,12.67
2023-04-19T18:21:19.507Z,12.00
2023-04-19T18:23:46.809Z,13.00
2023-04-19T18:26:13.286Z,12.00
2023-04-19T18:28:39.755Z,15.00
2023-04-19T18:31:07.132Z,13.00
2023-04-19T18:33:33.630Z,13.00
2023-04-19T18:36:00.077Z,12.50
2023-04-19T18:38:26.501Z,14.00
2023-04-19T18:40:52.949Z,14.00
2023-04-19T18:43:19.366Z,13.00
2023-04-19T18:45:45.898Z,16.00
2023-04-19T18:48:12.364Z,14.50
2023-04-19T18:50:40.668Z,8.60
2023-04-19T18:53:08.053Z,13.67
2023-04-19T18:55:35.449Z,14.00
2023-04-19T18:58:02.754Z,12.67
2023-04-19T19:00:30.118Z,13.00
2023-04-19T19:02:57.497Z,16.00
2023-04-19T19:05:25.103Z,13.33
2023-04-19T19:07:51.905Z,16.00
2023-04-19T19:10:22.331Z,16.50
2023-04-19T19:12:52.998Z,17.00
2023-04-19T19:15:19.542Z,15.00
2023-04-19T19:17:49.407Z,13.50
2023-04-19T19:20:17.634Z,12.67
2023-04-19T19:22:44.322Z,16.00
2023-04-19T19:25:11.637Z,11.33
2023-04-19T19:27:40.092Z,16.00
2023-04-19T19:30:07.514Z,13.00
2023-04-19T19:32:34.059Z,14.00
2023-04-19T19:35:03.794Z,12.33
2023-04-19T19:37:31.972Z,12.00
2023-04-19T19:40:02.832Z,13.00
2023-04-19T19:42:30.897Z,13.00
2023-04-19T19:44:58.296Z,14.00
2023-04-19T19:47:25.692Z,15.00
2023-04-19T19:52:22.466Z,13.67
2023-04-19T19:54:49.708Z,11.67
2023-04-19T19:59:51.372Z,13.00
2023-04-19T20:02:22.585Z,12.33
2023-04-19T20:04:50.251Z,14.00
2023-04-19T20:07:33.205Z,12.67
2023-04-19T20:10:04.086Z,13.00
2023-04-19T20:12:31.472Z,11.67
2023-04-19T20:14:57.911Z,13.50
2023-04-19T20:17:25.310Z,11.67
2023-04-19T20:19:52.751Z,14.33
2023-04-19T20:22:20.047Z,12.00
2023-04-19T20:24:47.396Z,12.00
2023-04-19T20:27:14.771Z,13.00
2023-04-19T20:29:42.074Z,11.00
2023-04-19T20:32:08.625Z,14.00
2023-04-19T20:34:35.154Z,12.50
2023-04-19T20:37:01.604Z,15.00
2023-04-19T20:39:28.031Z,13.00
2023-04-19T20:41:54.563Z,12.50
2023-04-19T20:44:21.919Z,13.67
2023-04-19T20:46:48.356Z,13.00
2023-04-19T20:49:14.993Z,16.00
2023-04-19T20:51:42.467Z,13.00
2023-04-19T20:54:09.007Z,12.00
2023-04-19T20:56:35.437Z,15.00
2023-04-19T20:59:02.769Z,15.33
2023-04-19T21:01:30.156Z,13.33
2023-04-19T21:03:57.949Z,14.33
2023-04-19T21:06:24.689Z,14.00
2023-04-19T21:08:51.115Z,14.00
2023-04-19T21:11:17.554Z,12.00
2023-04-19T21:13:44.008Z,13.00
2023-04-19T21:16:10.480Z,11.00
2023-04-19T21:18:37.857Z,12.00
2023-04-19T21:21:05.230Z,11.00
2023-04-19T21:23:32.547Z,13.00
2023-04-19T21:25:59.042Z,14.00
2023-04-19T21:28:26.431Z,14.67
2023-04-19T21:30:52.844Z,13.00
2023-04-19T21:33:19.300Z,13.00
2023-04-19T21:35:46.615Z,13.00
2023-04-19T21:38:13.058Z,13.00
2023-04-19T21:40:39.457Z,9.00
2023-04-19T21:43:06.775Z,12.33
2023-04-19T21:45:34.170Z,14.00
2023-04-19T21:48:00.692Z,14.00
2023-04-19T21:50:27.236Z,16.00
2023-04-19T21:52:53.661Z,12.00
2023-04-19T21:55:20.170Z,13.00
2023-04-19T21:57:47.478Z,14.00
2023-04-19T22:00:13.902Z,12.00
2023-04-19T22:02:40.438Z,12.50
2023-04-19T22:05:07.059Z,13.50
2023-04-19T22:07:34.359Z,13.00
2023-04-19T22:10:00.771Z,11.00
2023-04-19T22:12:28.144Z,14.00
2023-04-19T22:14:55.446Z,12.67
2023-04-19T22:17:22.921Z,13.00
2023-04-19T22:19:50.308Z,12.33
2023-04-19T22:22:16.755Z,14.00
2023-04-19T22:24:56.307Z,14.00
2023-04-19T22:27:25.080Z,13.67
2023-04-19T22:29:52.439Z,13.67
2023-04-19T22:32:19.858Z,15.33
2023-04-19T22:34:47.347Z,13.00
2023-04-19T22:37:14.752Z,15.33
2023-04-19T22:39:41.174Z,8.00
2023-04-19T22:42:07.656Z,14.00
2023-04-19T22:44:34.106Z,14.00
2023-04-19T22:47:01.480Z,15.67
2023-04-19T22:49:27.920Z,14.00
2023-04-19T22:51:55.292Z,13.67
2023-04-19T22:54:22.643Z,13.00
2023-04-19T22:56:49.052Z,12.00
2023-04-19T22:59:16.626Z,16.00
2023-04-19T23:01:43.225Z,13.00
2023-04-19T23:04:09.738Z,13.00
2023-04-19T23:06:36.180Z,16.00
2023-04-19T23:09:03.612Z,16.33
2023-04-19T23:11:31.006Z,14.33
2023-04-19T23:13:57.490Z,15.00
2023-04-19T23:16:24.960Z,15.33
2023-04-19T23:18:52.394Z,17.00
2023-04-19T23:21:18.844Z,15.00
2023-04-19T23:23:46.176Z,11.67
2023-04-19T23:26:12.663Z,16.50
2023-04-19T23:28:40.057Z,14.33
2023-04-19T23:31:06.595Z,16.00
2023-04-19T23:33:34.042Z,16.33
2023-04-19T23:36:00.502Z,13.50
2023-04-19T23:38:27.897Z,15.00
2023-04-19T23:40:54.358Z,14.00
2023-04-19T23:43:21.730Z,14.33
2023-04-19T23:45:48.275Z,14.00
2023-04-19T23:48:14.731Z,13.00
2023-04-19T23:50:42.101Z,14.00
2023-04-19T23:53:08.562Z,13.50
2023-04-19T23:55:35.022Z,14.00
2023-04-19T23:58:02.414Z,13.67
